Time;durP1;ratioP1;P1;durP2;ratioP2;P2;SDS_P1;SDS_P2;PMS_P1;PMS_P2;Temp;Humidity;BMP_temperature;BMP_pressure;BME280_temperature;BME280_humidity;BME280_pressure;Samples;Min_cycle;Max_cycle;Signal;HPM_P1;HPM_P2
2021/11/15 00:01:43;;;;;;;21.90;14.30;;;6.60;99.90;;;;;;12247185;28;20451;-87
2021/11/15 00:07:46;;;;;;;23.55;13.32;;;6.60;99.90;;;;;;12271972;28;20059;-88
2021/11/15 00:13:48;;;;;;;20.98;13.30;;;6.60;99.90;;;;;;12244000;28;20047;-87
2021/11/15 00:19:49;;;;;;;22.17;13.95;;;6.60;99.90;;;;;;12266552;28;20089;-89
2021/11/15 00:25:51;;;;;;;22.30;14.32;;;6.60;99.90;;;;;;12261246;28;20090;-87
2021/11/15 00:31:53;;;;;;;24.52;15.63;;;6.50;99.90;;;;;;12254845;28;20166;-88
2021/11/15 00:37:55;;;;;;;25.33;15.43;;;6.50;99.90;;;;;;12244909;28;20098;-87
2021/11/15 00:43:57;;;;;;;24.55;15.07;;;6.60;99.90;;;;;;12244476;28;20047;-88
2021/11/15 00:50:03;;;;;;;24.83;15.50;;;6.40;99.90;;;;;;12260016;28;20051;-87
2021/11/15 00:56:05;;;;;;;28.88;15.75;;;6.50;99.90;;;;;;12245243;28;20413;-86
2021/11/15 01:02:07;;;;;;;24.17;14.52;;;6.40;99.90;;;;;;12260301;28;20049;-89
2021/11/15 01:08:09;;;;;;;24.20;14.48;;;6.40;99.90;;;;;;12244422;28;20059;-89
2021/11/15 01:14:11;;;;;;;24.70;14.52;;;6.40;99.90;;;;;;12246344;28;20105;-89
2021/11/15 01:20:15;;;;;;;30.48;16.90;;;6.30;99.90;;;;;;12242546;28;20055;-88
2021/11/15 01:26:17;;;;;;;30.15;15.40;;;6.30;99.90;;;;;;12241576;28;20149;-86
2021/11/15 01:32:23;;;;;;;28.20;16.55;;;6.30;99.90;;;;;;12242945;28;20579;-87
2021/11/15 01:38:25;;;;;;;28.63;17.15;;;6.30;99.90;;;;;;12246440;28;20057;-88
2021/11/15 01:44:27;;;;;;;29.00;15.68;;;6.30;99.90;;;;;;12241408;28;20487;-86
2021/11/15 01:50:32;;;;;;;31.35;16.08;;;6.30;99.90;;;;;;12245665;28;20134;-87
2021/11/15 01:56:33;;;;;;;28.58;15.75;;;6.20;99.90;;;;;;12259344;28;20122;-87
2021/11/15 02:02:36;;;;;;;33.45;16.92;;;6.20;99.90;;;;;;12278241;28;20142;-87
2021/11/15 02:08:39;;;;;;;30.00;15.15;;;6.20;99.90;;;;;;12286767;28;20051;-87
2021/11/15 02:14:41;;;;;;;34.35;16.35;;;6.20;99.90;;;;;;12280115;28;20467;-88
2021/11/15 02:20:51;;;;;;;33.72;16.55;;;6.10;99.90;;;;;;12239688;28;20054;-87
2021/11/15 02:26:54;;;;;;;34.63;15.82;;;6.10;99.90;;;;;;12236552;28;20177;-86
2021/11/15 02:32:56;;;;;;;36.85;17.05;;;6.00;99.90;;;;;;12251819;28;20047;-86
2021/11/15 02:38:58;;;;;;;38.05;17.90;;;6.00;99.90;;;;;;12260456;28;20423;-89
2021/11/15 02:45:01;;;;;;;37.08;18.75;;;6.00;99.90;;;;;;12251398;28;20142;-86
2021/11/15 02:51:04;;;;;;;40.58;19.20;;;6.00;99.90;;;;;;12262945;28;20142;-87
2021/11/15 02:57:09;;;;;;;41.08;19.75;;;5.90;99.90;;;;;;12266716;28;20155;-88
2021/11/15 03:03:12;;;;;;;42.28;19.38;;;5.80;99.90;;;;;;12251985;28;20162;-87
2021/11/15 03:09:15;;;;;;;41.25;20.02;;;5.90;99.90;;;;;;12250351;28;20051;-88
2021/11/15 03:15:27;;;;;;;44.03;18.95;;;5.90;99.90;;;;;;12249210;28;20139;-89
2021/11/15 03:21:29;;;;;;;41.13;17.73;;;5.90;99.90;;;;;;12261061;28;20424;-88
2021/11/15 03:27:35;;;;;;;46.88;19.20;;;5.80;99.90;;;;;;12246054;28;20159;-87
2021/11/15 03:33:38;;;;;;;47.15;18.85;;;5.70;99.90;;;;;;12244226;28;20566;-86
2021/11/15 03:39:40;;;;;;;39.15;15.82;;;5.70;99.90;;;;;;12263312;28;20081;-89
2021/11/15 03:45:42;;;;;;;34.83;15.63;;;5.80;99.90;;;;;;12257237;28;20051;-87
2021/11/15 03:51:45;;;;;;;32.47;15.70;;;5.80;99.90;;;;;;12248485;28;20059;-89
2021/11/15 03:57:48;;;;;;;38.03;17.08;;;5.80;99.90;;;;;;12261108;28;21313;-86
2021/11/15 04:03:50;;;;;;;37.25;15.93;;;5.80;99.90;;;;;;12250367;28;20055;-88
2021/11/15 04:09:52;;;;;;;34.05;15.70;;;5.80;99.90;;;;;;12258735;28;20059;-88
2021/11/15 04:16:00;;;;;;;39.00;16.75;;;5.80;99.90;;;;;;12252668;28;20068;-87
2021/11/15 04:22:02;;;;;;;36.90;16.17;;;5.80;99.90;;;;;;12216452;29;20047;-88
2021/11/15 04:28:04;;;;;;;35.83;16.20;;;5.80;99.90;;;;;;12201022;29;20649;-89
2021/11/15 04:34:06;;;;;;;35.30;15.88;;;5.70;99.90;;;;;;12200823;29;20107;-87
2021/11/15 04:40:09;;;;;;;38.63;18.08;;;5.80;99.90;;;;;;12199947;29;20094;-87
2021/11/15 04:46:11;;;;;;;35.67;17.52;;;5.80;99.90;;;;;;12201019;29;20138;-86
2021/11/15 04:52:13;;;;;;;38.88;18.88;;;5.70;99.90;;;;;;12200313;29;20052;-86
2021/11/15 04:58:15;;;;;;;43.42;20.33;;;5.70;99.90;;;;;;12198980;29;20055;-86
2021/11/15 05:04:17;;;;;;;42.53;20.48;;;5.80;99.90;;;;;;12217478;29;20134;-86
2021/11/15 05:10:22;;;;;;;36.75;19.35;;;5.70;99.90;;;;;;12214999;29;23182;-87
2021/11/15 05:16:23;;;;;;;30.17;15.70;;;5.80;99.90;;;;;;12238493;28;20583;-87
2021/11/15 05:22:26;;;;;;;27.27;14.23;;;5.70;99.90;;;;;;12258786;28;20058;-87
2021/11/15 05:28:27;;;;;;;26.55;13.38;;;5.70;99.90;;;;;;12249701;28;20105;-87
2021/11/15 05:34:29;;;;;;;26.73;13.27;;;5.60;99.90;;;;;;12229161;28;20067;-87
2021/11/15 05:40:32;;;;;;;28.60;13.77;;;5.60;99.90;;;;;;12245467;28;20051;-89
2021/11/15 05:46:34;;;;;;;25.02;13.23;;;5.60;99.90;;;;;;12258523;28;20446;-89
2021/11/15 05:52:40;;;;;;;30.92;14.80;;;5.50;99.90;;;;;;12246069;28;20047;-86
2021/11/15 05:58:42;;;;;;;27.15;14.45;;;5.60;99.90;;;;;;12268308;28;20126;-86
2021/11/15 06:04:44;;;;;;;34.47;15.90;;;5.60;99.90;;;;;;12250028;28;20614;-88
2021/11/15 06:10:46;;;;;;;40.47;18.92;;;5.70;99.90;;;;;;12245413;28;20542;-87
2021/11/15 06:16:49;;;;;;;38.53;18.73;;;5.70;99.90;;;;;;12245245;28;20059;-88
2021/11/15 06:22:51;;;;;;;48.17;20.60;;;5.70;99.90;;;;;;12243404;28;20047;-85
2021/11/15 06:28:52;;;;;;;54.25;24.55;;;5.60;99.90;;;;;;12259634;28;20105;-89
2021/11/15 06:34:57;;;;;;;60.33;24.70;;;5.60;99.90;;;;;;12242175;28;20555;-88
2021/11/15 06:40:59;;;;;;;67.90;27.23;;;5.60;99.90;;;;;;12239874;28;20081;-88
2021/11/15 06:47:01;;;;;;;72.07;27.63;;;5.70;99.90;;;;;;12237858;28;20051;-87
2021/11/15 06:53:04;;;;;;;74.15;29.92;;;5.60;99.90;;;;;;12253198;28;20043;-86
2021/11/15 06:59:07;;;;;;;69.95;27.85;;;5.60;99.90;;;;;;12279972;28;20079;-87
2021/11/15 07:05:11;;;;;;;71.45;28.75;;;5.60;99.90;;;;;;12240976;28;20451;-87
2021/11/15 07:11:13;;;;;;;72.03;28.50;;;5.50;99.90;;;;;;12249235;28;20051;-88
2021/11/15 07:17:15;;;;;;;61.05;27.80;;;5.50;99.90;;;;;;12259295;28;20065;-88
2021/11/15 07:23:17;;;;;;;55.67;23.70;;;5.50;99.90;;;;;;12250047;28;20463;-88
2021/11/15 07:29:19;;;;;;;55.70;23.27;;;5.50;99.90;;;;;;12250549;28;20059;-88
2021/11/15 07:35:21;;;;;;;39.72;17.83;;;5.50;99.90;;;;;;12246317;28;20134;-87
2021/11/15 07:41:23;;;;;;;40.40;18.38;;;5.40;99.90;;;;;;12264806;28;20434;-86
2021/11/15 07:47:25;;;;;;;42.22;19.13;;;5.40;99.90;;;;;;12244672;28;20472;-89
2021/11/15 07:53:29;;;;;;;35.13;16.85;;;5.40;99.90;;;;;;12247537;28;20073;-87
2021/11/15 07:59:31;;;;;;;35.58;16.80;;;5.30;99.90;;;;;;12246894;28;20051;-89
2021/11/15 08:05:34;;;;;;;36.05;17.20;;;5.40;99.90;;;;;;12257632;28;20054;-87
2021/11/15 08:11:36;;;;;;;34.10;17.10;;;5.40;99.90;;;;;;12246387;28;20051;-88
2021/11/15 08:17:40;;;;;;;30.98;14.80;;;5.40;99.90;;;;;;12264933;28;20055;-88
2021/11/15 08:23:47;;;;;;;28.17;15.17;;;5.40;99.90;;;;;;12248790;28;20050;-90
2021/11/15 08:29:49;;;;;;;29.83;16.42;;;5.30;99.90;;;;;;12268505;28;20063;-88
2021/11/15 08:35:51;;;;;;;33.35;17.52;;;5.30;99.90;;;;;;12252401;28;20134;-88
2021/11/15 08:41:56;;;;;;;33.35;17.25;;;5.40;99.90;;;;;;12243876;28;20097;-88
2021/11/15 08:48:00;;;;;;;32.55;16.33;;;5.40;99.90;;;;;;12281502;28;20133;-89
2021/11/15 08:54:03;;;;;;;39.20;17.83;;;5.30;99.90;;;;;;12250509;28;20184;-87
2021/11/15 09:00:06;;;;;;;;;;;5.40;99.90;;;;;;12258640;28;20106;-88
2021/11/15 09:06:10;;;;;;;35.03;17.88;;;5.40;99.90;;;;;;12262023;28;20331;-88
2021/11/15 09:12:13;;;;;;;32.08;16.30;;;5.50;99.90;;;;;;12232743;28;20146;-86
2021/11/15 09:18:15;;;;;;;35.42;17.20;;;5.50;99.90;;;;;;12250115;28;20109;-88
2021/11/15 09:24:18;;;;;;;35.22;18.20;;;5.50;99.90;;;;;;12242147;28;20352;-88
2021/11/15 09:30:20;;;;;;;35.30;17.80;;;5.50;99.90;;;;;;12239392;28;20449;-88
2021/11/15 09:36:24;;;;;;;34.15;17.60;;;5.50;99.90;;;;;;12260182;28;20626;-87
2021/11/15 09:42:27;;;;;;;34.50;18.13;;;5.50;99.90;;;;;;12247722;28;20055;-88
2021/11/15 09:48:35;;;;;;;36.72;17.50;;;5.60;99.90;;;;;;12256328;28;20050;-88
2021/11/15 09:54:37;;;;;;;33.50;15.48;;;5.60;99.90;;;;;;12240872;28;20168;-87
2021/11/15 10:00:59;;;;;;;30.20;15.65;;;5.60;99.90;;;;;;12251066;28;20039;-88
2021/11/15 10:07:03;;;;;;;28.35;14.77;;;5.60;99.90;;;;;;12240502;28;20473;-87
2021/11/15 10:13:29;;;;;;;26.60;14.40;;;5.70;99.90;;;;;;12239123;28;20051;-86
2021/11/15 10:19:32;;;;;;;26.98;14.20;;;5.70;99.90;;;;;;12241130;28;20523;-87
2021/11/15 10:25:35;;;;;;;27.90;14.00;;;5.80;99.90;;;;;;12233457;28;20043;-88
2021/11/15 10:31:44;;;;;;;23.38;13.68;;;5.90;99.90;;;;;;12238739;28;20097;-89
2021/11/15 10:37:48;;;;;;;28.35;14.40;;;5.80;99.90;;;;;;12239610;28;20506;-88
2021/11/15 10:43:59;;;;;;;29.00;15.40;;;5.80;99.90;;;;;;12244198;28;20039;-87
2021/11/15 10:50:15;;;;;;;25.15;13.73;;;5.80;99.90;;;;;;12242458;28;20588;-87
2021/11/15 10:56:42;;;;;;;25.55;14.50;;;5.70;99.90;;;;;;12242850;28;20131;-88
2021/11/15 11:02:51;;;;;;;27.35;15.38;;;5.80;99.90;;;;;;12261842;28;20470;-89
2021/11/15 11:08:53;;;;;;;31.63;15.57;;;5.80;99.90;;;;;;12258017;28;20125;-89
2021/11/15 11:15:39;;;;;;;29.63;15.48;;;5.80;99.90;;;;;;12257255;28;22633;-89
2021/11/15 11:21:57;;;;;;;30.02;15.60;;;5.80;99.90;;;;;;12241776;28;20087;-89
2021/11/15 11:28:27;;;;;;;31.08;15.93;;;5.80;99.90;;;;;;12258502;28;20097;-88
2021/11/15 11:34:29;;;;;;;30.30;16.35;;;5.70;99.90;;;;;;12264337;28;20055;-88
2021/11/15 11:40:32;;;;;;;32.20;16.75;;;5.80;99.90;;;;;;12258404;28;20133;-89
2021/11/15 11:46:36;;;;;;;31.48;16.95;;;5.80;99.90;;;;;;12251069;28;20059;-87
2021/11/15 11:52:40;;;;;;;37.38;18.65;;;5.80;99.90;;;;;;12252669;28;20055;-87
2021/11/15 11:58:46;;;;;;;31.17;18.10;;;5.80;99.90;;;;;;12263680;28;20143;-87
2021/11/15 12:04:49;;;;;;;34.35;19.30;;;5.80;99.90;;;;;;12247728;28;20051;-87
2021/11/15 12:10:57;;;;;;;35.83;19.02;;;5.80;99.90;;;;;;12247878;28;20043;-89
2021/11/15 12:17:09;;;;;;;39.00;19.50;;;5.70;99.90;;;;;;12250779;28;20514;-87
2021/11/15 12:23:13;;;;;;;35.83;19.40;;;5.60;99.90;;;;;;12265038;28;20196;-88
2021/11/15 12:29:27;;;;;;;40.03;20.65;;;5.70;99.90;;;;;;12250041;28;20047;-87
2021/11/15 12:35:48;;;;;;;39.50;19.87;;;5.80;99.90;;;;;;12248136;28;20158;-86
2021/11/15 12:41:52;;;;;;;37.10;19.58;;;5.70;99.90;;;;;;12245898;28;20047;-88
2021/11/15 12:47:54;;;;;;;36.58;20.02;;;5.70;99.90;;;;;;12260303;28;20121;-87
2021/11/15 12:53:56;;;;;;;40.88;21.23;;;5.70;99.90;;;;;;12257550;28;20051;-89
2021/11/15 12:59:59;;;;;;;39.72;21.10;;;5.70;99.90;;;;;;12239555;28;20047;-88
2021/11/15 13:06:01;;;;;;;40.35;20.33;;;5.70;99.90;;;;;;12265832;28;20136;-87
2021/11/15 13:12:03;;;;;;;37.65;20.50;;;5.70;99.90;;;;;;12264884;28;20047;-90
2021/11/15 13:18:05;;;;;;;37.28;20.33;;;5.80;99.90;;;;;;12246266;28;20468;-89
2021/11/15 13:24:14;;;;;;;41.95;21.83;;;5.70;99.90;;;;;;12237976;28;20385;-89
2021/11/15 13:30:22;;;;;;;36.33;18.80;;;5.80;99.90;;;;;;12230936;28;20055;-88
2021/11/15 13:36:35;;;;;;;38.85;20.75;;;5.70;99.90;;;;;;12251825;28;20121;-89
2021/11/15 13:42:39;;;;;;;40.80;21.48;;;5.80;99.90;;;;;;12254042;28;20049;-88
2021/11/15 13:48:40;;;;;;;40.47;21.38;;;5.70;99.90;;;;;;12254211;28;20508;-86
2021/11/15 13:54:46;;;;;;;38.85;20.55;;;5.70;99.90;;;;;;12245107;28;20130;-89
2021/11/15 14:00:49;;;;;;;39.10;21.48;;;5.70;99.90;;;;;;12260389;28;20079;-87
2021/11/15 14:06:50;;;;;;;40.83;20.83;;;5.70;99.90;;;;;;12239457;28;20055;-87
2021/11/15 14:12:52;;;;;;;40.22;21.73;;;5.70;99.90;;;;;;12249867;28;20113;-88
2021/11/15 14:18:54;;;;;;;41.58;22.90;;;5.70;99.90;;;;;;12241586;28;20051;-89
2021/11/15 14:24:56;;;;;;;48.25;24.58;;;5.70;99.90;;;;;;12245440;28;20051;-87
2021/11/15 14:30:58;;;;;;;45.05;23.85;;;5.70;99.90;;;;;;12250854;28;20047;-89
2021/11/15 14:37:00;;;;;;;47.65;23.90;;;5.80;99.90;;;;;;12242710;28;20413;-89
2021/11/15 14:43:02;;;;;;;48.15;24.60;;;5.70;99.90;;;;;;12273840;28;20035;-87
2021/11/15 14:49:04;;;;;;;50.70;24.23;;;5.80;99.90;;;;;;12277235;28;20082;-89
2021/11/15 14:55:08;;;;;;;54.10;27.02;;;5.70;99.90;;;;;;12247175;28;20089;-89
2021/11/15 15:01:10;;;;;;;53.10;26.67;;;5.70;99.90;;;;;;12251844;28;20047;-87
2021/11/15 15:07:13;;;;;;;59.92;27.65;;;5.60;99.90;;;;;;12248558;28;20134;-89
2021/11/15 15:13:15;;;;;;;52.35;26.75;;;5.70;99.90;;;;;;12262819;28;20047;-88
2021/11/15 15:19:20;;;;;;;57.67;29.63;;;5.60;99.90;;;;;;12252287;28;20492;-86
2021/11/15 15:25:27;;;;;;;57.78;27.83;;;5.70;99.90;;;;;;12256776;28;20058;-88
2021/11/15 15:31:28;;;;;;;55.92;27.98;;;5.70;99.90;;;;;;12249561;28;20098;-87
2021/11/15 15:37:31;;;;;;;51.67;27.13;;;5.60;99.90;;;;;;12254848;28;20451;-88
2021/11/15 15:43:33;;;;;;;51.17;25.50;;;5.60;99.90;;;;;;12250205;28;20051;-90
2021/11/15 15:49:35;;;;;;;52.35;26.23;;;5.60;99.90;;;;;;12246720;28;20093;-89
2021/11/15 15:55:38;;;;;;;54.85;25.48;;;5.50;99.90;;;;;;12254887;28;20059;-88
2021/11/15 16:01:40;;;;;;;49.35;24.25;;;5.50;99.90;;;;;;12249403;28;20043;-87
2021/11/15 16:14:18;;;;;;;47.50;23.55;;;5.50;99.90;;;;;;12258681;28;20047;-89
2021/11/15 16:20:20;;;;;;;43.67;22.42;;;5.40;99.90;;;;;;12261485;28;20055;-87
2021/11/15 16:26:24;;;;;;;45.65;22.83;;;5.50;99.90;;;;;;12256672;28;20115;-87
2021/11/15 16:32:46;;;;;;;42.47;22.23;;;5.50;99.90;;;;;;12241375;28;20122;-87
2021/11/15 16:39:07;;;;;;;44.15;22.45;;;5.50;99.90;;;;;;12252439;28;20055;-90
2021/11/15 16:45:14;;;;;;;46.70;23.63;;;5.50;99.90;;;;;;12245176;28;20254;-87
2021/11/15 16:51:18;;;;;;;44.88;21.55;;;5.50;99.90;;;;;;12257418;28;20357;-87
2021/11/15 16:57:20;;;;;;;46.63;25.10;;;5.50;99.90;;;;;;12263335;28;20043;-89
2021/11/15 17:03:25;;;;;;;44.72;22.88;;;5.50;99.90;;;;;;12240265;28;20047;-89
2021/11/15 17:09:28;;;;;;;;;;;5.50;99.90;;;;;;12244620;28;20447;-89
2021/11/15 17:15:30;;;;;;;49.78;23.70;;;5.50;99.90;;;;;;12255507;28;20296;-88
2021/11/15 17:21:32;;;;;;;45.58;23.35;;;5.50;99.90;;;;;;12245428;28;20082;-88
2021/11/15 17:27:35;;;;;;;48.55;22.83;;;5.50;99.90;;;;;;12250261;28;20055;-89
2021/11/15 17:33:37;;;;;;;47.58;24.33;;;5.50;99.90;;;;;;12246595;28;20047;-89
2021/11/15 17:39:40;;;;;;;50.38;24.13;;;5.40;99.90;;;;;;12229977;28;20118;-88
2021/11/15 17:45:44;;;;;;;48.47;24.52;;;5.50;99.90;;;;;;12239369;28;20527;-87
2021/11/15 17:58:11;;;;;;;52.47;25.08;;;5.50;99.90;;;;;;12260176;28;20054;-88
2021/11/15 18:04:14;;;;;;;51.80;25.05;;;5.50;99.90;;;;;;12273097;28;20044;-88
2021/11/15 18:10:17;;;;;;;47.97;24.27;;;5.50;99.90;;;;;;12243809;28;20082;-89
2021/11/15 18:16:22;;;;;;;46.47;23.88;;;5.40;99.90;;;;;;12260625;28;20055;-87
2021/11/15 18:22:26;;;;;;;47.53;23.63;;;5.40;99.90;;;;;;12243623;28;20047;-88
2021/11/15 18:28:31;;;;;;;44.75;24.42;;;5.40;99.90;;;;;;12230743;28;20121;-89
2021/11/15 18:34:34;;;;;;;49.38;24.15;;;5.50;99.90;;;;;;12258010;28;20415;-88
2021/11/15 18:40:38;;;;;;;45.63;24.02;;;5.40;99.90;;;;;;12233583;28;20468;-88
2021/11/15 18:46:42;;;;;;;50.15;24.73;;;5.40;99.90;;;;;;12242671;28;20051;-90
2021/11/15 18:52:44;;;;;;;44.30;23.38;;;5.40;99.90;;;;;;12233481;28;20097;-87
2021/11/15 18:58:46;;;;;;;52.88;24.77;;;5.40;99.90;;;;;;12245175;28;20043;-90
2021/11/15 19:04:56;;;;;;;49.40;24.65;;;5.40;99.90;;;;;;12260425;28;20074;-87
2021/11/15 19:11:13;;;;;;;46.78;24.40;;;5.40;99.90;;;;;;12246314;28;20074;-87
2021/11/15 19:17:17;;;;;;;46.22;23.88;;;5.40;99.90;;;;;;12260521;28;20106;-89
2021/11/15 19:23:21;;;;;;;43.45;23.00;;;5.30;99.90;;;;;;12228051;28;20051;-89
2021/11/15 19:29:25;;;;;;;46.13;23.52;;;5.40;99.90;;;;;;12254769;28;20055;-87
2021/11/15 19:35:27;;;;;;;49.42;25.55;;;5.40;99.90;;;;;;12232481;28;20137;-89
2021/11/15 19:41:30;;;;;;;45.85;23.90;;;5.40;99.90;;;;;;12264203;28;20047;-87
2021/11/15 19:47:33;;;;;;;43.70;23.10;;;5.30;99.90;;;;;;12251528;28;20538;-88
2021/11/15 19:53:35;;;;;;;42.50;23.10;;;5.20;99.90;;;;;;12252971;28;20079;-88
2021/11/15 19:59:39;;;;;;;42.97;23.23;;;5.30;99.90;;;;;;12244010;28;20109;-87
2021/11/15 20:05:48;;;;;;;44.97;23.75;;;5.20;99.90;;;;;;12246492;28;20048;-87
2021/11/15 20:11:56;;;;;;;46.85;22.80;;;5.20;99.90;;;;;;12241832;28;20035;-88
2021/11/15 20:17:59;;;;;;;52.47;25.33;;;5.20;99.90;;;;;;12248103;28;20098;-89
2021/11/15 20:24:01;;;;;;;51.28;25.42;;;5.20;99.90;;;;;;12247165;28;20162;-89
2021/11/15 20:30:12;;;;;;;54.15;26.23;;;5.20;99.90;;;;;;12258536;28;20058;-87
2021/11/15 20:36:17;;;;;;;52.22;27.13;;;5.20;99.90;;;;;;12296804;28;20055;-88
2021/11/15 20:42:22;;;;;;;52.95;26.85;;;5.20;99.90;;;;;;12274017;28;20043;-89
2021/11/15 20:48:26;;;;;;;55.38;26.42;;;5.20;99.90;;;;;;12248059;28;20051;-87
2021/11/15 20:54:28;;;;;;;57.50;27.95;;;5.20;99.90;;;;;;12255542;28;20047;-89
2021/11/15 21:00:35;;;;;;;57.83;26.95;;;5.10;99.90;;;;;;12234462;28;20059;-89
2021/11/15 21:06:37;;;;;;;54.88;27.00;;;5.20;99.90;;;;;;12264020;28;20058;-88
2021/11/15 21:12:39;;;;;;;61.67;27.33;;;5.20;99.90;;;;;;12258666;28;20667;-90
2021/11/15 21:18:53;;;;;;;52.90;26.50;;;5.10;99.90;;;;;;12249785;28;20063;-89
2021/11/15 21:25:02;;;;;;;65.40;28.77;;;5.20;99.90;;;;;;12256663;28;20061;-88
2021/11/15 21:31:04;;;;;;;59.25;28.67;;;5.20;99.90;;;;;;12247118;28;20048;-89
2021/11/15 21:37:08;;;;;;;65.47;29.50;;;5.20;99.90;;;;;;12259931;28;20047;-89
2021/11/15 21:43:12;;;;;;;58.03;26.35;;;5.10;99.90;;;;;;12226984;28;20051;-88
2021/11/15 21:49:14;;;;;;;68.70;29.17;;;5.10;99.90;;;;;;12251253;28;20118;-90
2021/11/15 21:55:16;;;;;;;58.65;27.88;;;5.10;99.90;;;;;;12244759;28;20496;-89
2021/11/15 22:01:22;;;;;;;57.03;27.45;;;5.10;99.90;;;;;;12238638;28;20166;-88
2021/11/15 22:07:26;;;;;;;62.58;27.73;;;5.10;99.90;;;;;;12248481;28;20062;-88
2021/11/15 22:13:29;;;;;;;60.53;28.67;;;5.10;99.90;;;;;;12240515;28;20073;-90
2021/11/15 22:19:31;;;;;;;59.00;27.50;;;5.20;99.90;;;;;;12250902;28;20775;-89
2021/11/15 22:25:33;;;;;;;59.97;25.98;;;5.20;99.90;;;;;;12250184;28;20154;-89
2021/11/15 22:31:37;;;;;;;56.58;26.17;;;5.10;99.90;;;;;;12253549;28;20129;-88
2021/11/15 22:37:40;;;;;;;58.28;26.95;;;5.10;99.90;;;;;;12285408;28;20047;-90
2021/11/15 22:43:43;;;;;;;56.97;26.65;;;5.10;99.90;;;;;;12249219;28;20083;-89
2021/11/15 22:49:46;;;;;;;63.95;28.92;;;5.10;99.90;;;;;;12257558;28;20059;-88
2021/11/15 22:55:49;;;;;;;66.65;28.85;;;5.10;99.90;;;;;;12246891;28;20059;-89
2021/11/15 23:01:52;;;;;;;67.97;29.25;;;5.00;99.90;;;;;;12245366;28;20078;-89
2021/11/15 23:07:56;;;;;;;60.13;26.40;;;5.00;99.90;;;;;;12249181;28;20052;-89
2021/11/15 23:13:59;;;;;;;66.75;29.02;;;5.10;99.90;;;;;;12246927;28;20043;-88
2021/11/15 23:20:07;;;;;;;61.88;27.05;;;5.10;99.90;;;;;;12245191;28;20133;-88
2021/11/15 23:26:10;;;;;;;66.10;27.60;;;5.10;99.90;;;;;;12248498;28;20050;-90
2021/11/15 23:32:12;;;;;;;60.08;25.88;;;5.10;99.90;;;;;;12250827;28;20308;-90
2021/11/15 23:38:14;;;;;;;60.83;27.00;;;5.00;99.90;;;;;;12247399;28;20043;-88
2021/11/15 23:44:16;;;;;;;60.35;25.58;;;5.00;99.90;;;;;;12234610;28;20047;-87
2021/11/15 23:50:18;;;;;;;54.50;24.75;;;4.90;99.90;;;;;;12253375;28;20074;-89
2021/11/15 23:56:21;;;;;;;59.90;24.58;;;4.90;99.90;;;;;;12245830;28;20599;-88
